createdAt,value
2023-05-13T00:00:29.896Z,39.61
2023-05-13T00:03:34.395Z,38.84
2023-05-13T00:06:41.671Z,37.96
2023-05-13T00:09:45.876Z,36.93
2023-05-13T00:12:50.006Z,37.30
2023-05-13T00:15:54.450Z,37.34
2023-05-13T00:18:58.861Z,38.01
2023-05-13T00:22:03.074Z,38.50
2023-05-13T00:25:18.049Z,38.40
2023-05-13T00:28:24.964Z,37.62
2023-05-13T00:31:33.912Z,37.27
2023-05-13T00:34:42.545Z,36.85
2023-05-13T00:37:47.516Z,37.89
2023-05-13T00:40:53.607Z,37.25
2023-05-13T00:43:58.337Z,36.83
2023-05-13T00:47:02.994Z,36.94
2023-05-13T00:50:09.047Z,37.13
2023-05-13T00:53:19.083Z,36.45
2023-05-13T00:56:23.526Z,36.01
2023-05-13T00:59:31.729Z,35.75
2023-05-13T01:04:28.822Z,35.66
2023-05-13T01:23:37.705Z,35.17
2023-05-13T01:36:29.084Z,37.13
2023-05-13T01:39:15.173Z,37.15
2023-05-13T01:55:21.990Z,37.71
2023-05-13T01:58:27.864Z,36.61
2023-05-13T02:01:54.151Z,35.86
2023-05-13T02:06:00.639Z,36.26
2023-05-13T02:09:13.826Z,35.70
2023-05-13T02:12:20.527Z,36.31
2023-05-13T02:15:28.346Z,35.97
2023-05-13T02:18:41.612Z,33.98
2023-05-13T02:21:45.648Z,34.00
2023-05-13T02:24:49.456Z,33.64
2023-05-13T02:27:53.764Z,33.45
2023-05-13T02:30:57.910Z,33.07
2023-05-13T02:34:04.769Z,32.96
2023-05-13T02:37:08.781Z,33.16
2023-05-13T02:40:20.222Z,32.71
2023-05-13T02:43:28.481Z,32.67
2023-05-13T02:46:38.905Z,32.25
2023-05-13T02:49:43.125Z,32.25
2023-05-13T02:52:47.500Z,32.84
2023-05-13T02:55:51.978Z,33.01
2023-05-13T02:59:00.545Z,32.71
2023-05-13T03:02:07.721Z,32.72
2023-05-13T03:05:12.061Z,32.33
2023-05-13T03:21:10.712Z,32.29
2023-05-13T03:24:15.179Z,32.27
2023-05-13T03:27:29.879Z,32.06
2023-05-13T03:30:36.236Z,32.28
2023-05-13T03:33:45.072Z,31.63
2023-05-13T03:37:12.894Z,32.08
2023-05-13T03:44:36.164Z,32.48
2023-05-13T03:47:44.966Z,32.08
2023-05-13T04:20:19.442Z,33.57
2023-05-13T04:23:23.838Z,33.43
2023-05-13T04:26:58.124Z,32.99
2023-05-13T04:30:59.296Z,32.81
2023-05-13T04:34:36.092Z,32.63
2023-05-13T04:37:43.241Z,32.76
2023-05-13T04:41:00.553Z,33.41
2023-05-13T04:44:25.552Z,33.32
2023-05-13T04:47:40.213Z,33.07
2023-05-13T04:51:21.157Z,33.48
2023-05-13T04:54:25.641Z,33.39
2023-05-13T04:58:05.819Z,33.21
2023-05-13T05:01:35.201Z,33.68
2023-05-13T05:04:35.527Z,33.51
2023-05-13T05:15:40.922Z,33.38
2023-05-13T05:22:33.440Z,33.09
2023-05-13T05:25:40.330Z,33.44
2023-05-13T05:29:12.145Z,33.13
2023-05-13T05:32:30.409Z,33.07
2023-05-13T05:45:09.352Z,32.87
2023-05-13T06:23:15.646Z,32.58
2023-05-13T06:26:22.853Z,32.75
2023-05-13T06:29:32.751Z,32.90
2023-05-13T06:32:42.731Z,33.23
2023-05-13T06:35:57.056Z,32.88
2023-05-13T06:39:02.366Z,32.55
2023-05-13T06:42:14.523Z,32.84
2023-05-13T06:45:30.104Z,32.32
2023-05-13T06:48:34.229Z,32.62
2023-05-13T06:51:40.920Z,32.68
2023-05-13T06:54:44.602Z,32.86
2023-05-13T06:57:51.300Z,32.86
2023-05-13T07:00:55.204Z,32.94
2023-05-13T07:03:59.110Z,33.27
2023-05-13T07:07:05.666Z,33.62
2023-05-13T07:10:09.902Z,33.74
2023-05-13T07:13:18.202Z,34.54
2023-05-13T07:16:24.982Z,34.77
2023-05-13T07:19:45.945Z,34.71
2023-05-13T07:27:02.289Z,35.63
2023-05-13T07:30:10.837Z,35.91
2023-05-13T07:33:15.052Z,36.33
2023-05-13T07:36:18.968Z,36.33
2023-05-13T07:39:26.325Z,35.76
2023-05-13T07:42:30.898Z,35.43
2023-05-13T07:45:35.196Z,35.29
2023-05-13T07:48:38.933Z,35.89
2023-05-13T07:51:42.877Z,36.75
2023-05-13T07:54:48.585Z,37.92
2023-05-13T07:58:02.169Z,38.07
2023-05-13T08:01:06.301Z,38.25
2023-05-13T08:04:10.311Z,38.68
2023-05-13T08:07:17.130Z,38.92
2023-05-13T08:10:20.846Z,38.77
2023-05-13T08:13:25.122Z,39.11
2023-05-13T08:16:28.929Z,39.11
2023-05-13T08:19:33.098Z,39.15
2023-05-13T08:22:37.186Z,39.35
2023-05-13T08:25:41.645Z,39.41
2023-05-13T08:28:45.541Z,39.07
2023-05-13T08:31:49.634Z,38.77
2023-05-13T08:34:56.853Z,38.64
2023-05-13T08:38:04.711Z,39.01
2023-05-13T08:41:08.503Z,39.45
2023-05-13T08:44:16.093Z,40.10
2023-05-13T08:47:41.283Z,39.92
2023-05-13T08:50:46.575Z,40.05
2023-05-13T08:53:52.971Z,39.93
2023-05-13T08:56:56.983Z,40.73
2023-05-13T09:00:00.796Z,40.63
2023-05-13T09:03:10.623Z,41.27
2023-05-13T09:06:14.558Z,41.46
2023-05-13T09:09:19.499Z,41.44
2023-05-13T09:12:47.506Z,41.82
2023-05-13T09:15:52.806Z,42.14
2023-05-13T09:19:06.731Z,42.54
2023-05-13T09:22:19.403Z,43.52
2023-05-13T09:25:27.998Z,43.78
2023-05-13T09:28:34.777Z,43.14
2023-05-13T09:35:22.948Z,42.51
2023-05-13T10:13:39.653Z,45.91
2023-05-13T10:16:47.667Z,46.27
2023-05-13T10:19:55.724Z,46.26
2023-05-13T10:23:16.470Z,46.70
2023-05-13T10:27:30.494Z,46.67
2023-05-13T10:30:46.269Z,47.04
2023-05-13T10:33:58.780Z,47.05
2023-05-13T10:37:24.137Z,47.49
2023-05-13T10:41:07.019Z,47.60
2023-05-13T10:44:12.122Z,47.63
2023-05-13T10:47:21.583Z,47.04
2023-05-13T10:50:28.708Z,47.61
2023-05-13T10:53:37.429Z,48.05
2023-05-13T10:56:50.297Z,48.63
2023-05-13T11:00:22.649Z,49.05
2023-05-13T11:03:32.245Z,49.09
2023-05-13T11:06:42.013Z,49.28
2023-05-13T11:09:52.104Z,49.70
2023-05-13T11:13:19.361Z,49.87
2023-05-13T11:16:29.792Z,50.16
2023-05-13T11:19:35.918Z,50.79
2023-05-13T11:22:43.036Z,50.62
2023-05-13T11:25:50.238Z,49.55
2023-05-13T11:29:08.706Z,50.20
2023-05-13T11:32:12.726Z,50.86
2023-05-13T11:35:42.653Z,51.28
2023-05-13T11:38:47.023Z,52.27
2023-05-13T11:41:52.643Z,52.27
2023-05-13T11:45:00.278Z,52.64
2023-05-13T11:48:21.151Z,52.96
2023-05-13T11:51:26.488Z,52.43
2023-05-13T11:54:30.662Z,52.27
2023-05-13T11:57:41.652Z,50.96
2023-05-13T12:00:46.681Z,50.40
2023-05-13T12:03:51.392Z,49.90
2023-05-13T12:07:05.306Z,48.88
2023-05-13T12:10:12.521Z,48.65
2023-05-13T12:13:24.961Z,49.14
2023-05-13T12:16:32.492Z,47.98
2023-05-13T12:19:38.236Z,47.50
2023-05-13T12:22:47.531Z,47.36
2023-05-13T12:26:01.458Z,47.60
2023-05-13T12:29:09.673Z,47.35
2023-05-13T12:32:19.456Z,47.04
2023-05-13T12:35:27.714Z,47.26
2023-05-13T12:38:32.410Z,47.16
2023-05-13T12:41:42.959Z,47.34
2023-05-13T12:45:05.667Z,47.27
2023-05-13T12:48:10.129Z,47.15
2023-05-13T12:51:19.847Z,47.27
2023-05-13T12:54:23.977Z,47.17
2023-05-13T12:57:31.117Z,46.85
2023-05-13T13:00:37.394Z,47.33
2023-05-13T13:03:42.072Z,47.40
2023-05-13T13:06:46.496Z,47.50
2023-05-13T13:09:50.414Z,47.97
2023-05-13T13:12:54.636Z,48.21
2023-05-13T13:16:06.383Z,48.02
2023-05-13T13:19:11.200Z,48.36
2023-05-13T13:22:16.103Z,48.12
2023-05-13T13:25:20.648Z,48.26
2023-05-13T13:28:27.638Z,48.44
2023-05-13T13:31:33.772Z,49.45
2023-05-13T13:34:38.983Z,48.87
2023-05-13T13:37:44.783Z,48.88
2023-05-13T13:40:49.446Z,49.07
2023-05-13T13:43:55.701Z,49.06
2023-05-13T13:47:02.193Z,49.07
2023-05-13T13:50:07.179Z,49.44
2023-05-13T13:53:13.863Z,50.20
2023-05-13T13:56:24.135Z,50.89
2023-05-13T13:59:31.075Z,51.38
2023-05-13T14:02:38.239Z,51.55
2023-05-13T14:05:42.637Z,51.37
2023-05-13T14:08:46.772Z,51.35
2023-05-13T14:11:51.083Z,50.98
2023-05-13T14:14:55.230Z,50.86
2023-05-13T14:18:02.213Z,50.74
2023-05-13T14:21:07.193Z,50.77
2023-05-13T14:24:12.781Z,50.67
2023-05-13T14:27:19.102Z,50.60
2023-05-13T14:30:24.158Z,50.50
2023-05-13T14:33:28.280Z,50.53
2023-05-13T14:36:34.797Z,50.34
2023-05-13T14:39:41.772Z,50.11
2023-05-13T14:42:50.414Z,49.96
2023-05-13T14:45:54.349Z,49.89
2023-05-13T14:49:01.059Z,50.14
2023-05-13T14:52:14.668Z,50.12
2023-05-13T14:58:55.560Z,50.08
2023-05-13T15:01:59.812Z,50.69
2023-05-13T15:05:06.742Z,51.15
2023-05-13T15:08:10.864Z,51.92
2023-05-13T15:11:16.145Z,51.84
2023-05-13T15:14:21.941Z,52.18
2023-05-13T15:17:26.027Z,52.41
2023-05-13T15:20:30.652Z,52.83
2023-05-13T15:23:34.830Z,54.44
2023-05-13T15:26:40.753Z,54.34
2023-05-13T15:29:44.780Z,54.58
2023-05-13T15:32:49.258Z,55.65
2023-05-13T15:35:53.585Z,56.17
2023-05-13T15:38:58.035Z,57.00
2023-05-13T15:42:04.811Z,57.83
2023-05-13T15:45:11.221Z,58.33
2023-05-13T15:48:15.436Z,59.10
2023-05-13T15:51:19.508Z,59.31
2023-05-13T15:54:23.300Z,59.88
2023-05-13T15:57:27.488Z,60.23
2023-05-13T16:00:47.931Z,62.06
2023-05-13T16:11:47.215Z,61.05
2023-05-13T16:14:51.801Z,61.93
2023-05-13T16:18:09.101Z,62.46
2023-05-13T16:21:14.173Z,63.45
2023-05-13T16:24:28.192Z,63.19
2023-05-13T16:27:50.872Z,63.54
2023-05-13T16:30:58.638Z,63.96
2023-05-13T16:34:12.562Z,65.40
2023-05-13T16:37:23.026Z,66.31
2023-05-13T16:40:45.549Z,65.21
2023-05-13T16:43:49.912Z,65.52
2023-05-13T16:46:57.036Z,66.01
2023-05-13T16:53:57.028Z,66.86
2023-05-13T16:57:16.060Z,66.30
2023-05-13T17:00:28.166Z,67.70
2023-05-13T17:03:44.981Z,67.49
2023-05-13T17:07:03.203Z,67.43
2023-05-13T17:10:31.159Z,69.82
2023-05-13T17:13:40.943Z,71.13
2023-05-13T17:16:52.570Z,71.78
2023-05-13T17:20:02.658Z,70.94
2023-05-13T17:23:07.681Z,69.93
2023-05-13T17:26:28.727Z,69.53
2023-05-13T17:29:56.136Z,69.57
2023-05-13T17:33:23.224Z,69.86
2023-05-13T17:36:34.883Z,70.34
2023-05-13T17:39:46.396Z,70.80
2023-05-13T17:42:56.833Z,70.31
2023-05-13T17:46:22.911Z,72.53
2023-05-13T17:49:47.076Z,73.25
2023-05-13T17:52:57.102Z,72.83
2023-05-13T17:56:03.448Z,72.30
2023-05-13T17:59:15.151Z,72.50
2023-05-13T18:02:21.363Z,72.62
2023-05-13T18:05:32.041Z,72.60
2023-05-13T18:08:42.617Z,73.27
2023-05-13T18:11:47.216Z,74.32
2023-05-13T18:14:55.857Z,74.11
2023-05-13T18:18:22.184Z,74.50
2023-05-13T18:21:45.679Z,76.20
2023-05-13T18:25:23.907Z,77.35
2023-05-13T18:29:01.916Z,74.23
2023-05-13T18:32:10.548Z,72.94
2023-05-13T18:35:16.382Z,73.76
2023-05-13T18:38:20.475Z,72.95
2023-05-13T18:41:24.523Z,73.00
2023-05-13T18:44:29.621Z,74.33
2023-05-13T18:47:35.716Z,75.37
2023-05-13T18:50:39.755Z,74.00
2023-05-13T18:53:43.985Z,74.73
2023-05-13T18:56:49.191Z,73.00
2023-05-13T18:59:53.460Z,70.49
2023-05-13T19:02:57.668Z,67.87
2023-05-13T19:06:01.807Z,67.99
2023-05-13T19:09:07.878Z,67.29
2023-05-13T19:12:11.971Z,66.47
2023-05-13T19:15:22.250Z,66.41
2023-05-13T19:18:26.625Z,66.35
2023-05-13T19:21:30.750Z,65.44
2023-05-13T19:24:37.232Z,65.58
2023-05-13T19:27:45.268Z,66.13
2023-05-13T19:31:01.055Z,67.10
2023-05-13T20:03:24.967Z,70.28
2023-05-13T20:07:06.551Z,70.55
2023-05-13T20:10:20.912Z,70.23
2023-05-13T20:18:57.742Z,71.94
2023-05-13T20:23:20.466Z,71.91
2023-05-13T20:27:18.626Z,72.22
2023-05-13T20:30:34.827Z,71.64
2023-05-13T20:34:00.321Z,71.54
2023-05-13T20:37:11.942Z,71.14
2023-05-13T20:40:33.419Z,71.81
2023-05-13T20:44:40.496Z,72.73
2023-05-13T21:04:23.045Z,70.73
2023-05-13T21:07:35.538Z,71.69
2023-05-13T21:11:03.844Z,71.51
2023-05-13T21:15:15.382Z,71.33
2023-05-13T21:20:01.363Z,71.55
2023-05-13T21:23:16.471Z,71.53
2023-05-13T21:26:23.010Z,71.63
2023-05-13T21:29:40.892Z,70.71
2023-05-13T21:32:55.394Z,70.94
2023-05-13T21:35:59.463Z,71.48
2023-05-13T21:39:06.133Z,70.89
2023-05-13T21:42:10.758Z,70.25
2023-05-13T21:45:16.081Z,70.17
2023-05-13T21:48:22.755Z,69.71
2023-05-13T21:51:58.999Z,69.08
2023-05-13T21:55:39.992Z,69.77
2023-05-13T22:06:55.513Z,65.84
2023-05-13T22:10:07.068Z,66.29
2023-05-13T22:13:41.072Z,66.63
2023-05-13T22:22:19.920Z,64.32
2023-05-13T22:25:41.014Z,63.90
2023-05-13T22:32:44.821Z,62.78
2023-05-13T22:36:02.606Z,61.94
2023-05-13T22:39:15.139Z,61.49
2023-05-13T22:42:19.862Z,61.24
2023-05-13T22:45:23.939Z,60.24
2023-05-13T22:48:29.806Z,60.23
2023-05-13T22:51:34.684Z,59.56
2023-05-13T22:54:38.755Z,58.10
2023-05-13T22:57:43.405Z,57.57
2023-05-13T23:00:47.281Z,57.25
2023-05-13T23:03:53.496Z,56.74
2023-05-13T23:06:57.852Z,56.19
2023-05-13T23:10:01.964Z,57.14
2023-05-13T23:13:06.971Z,58.21
2023-05-13T23:16:10.918Z,58.39
2023-05-13T23:19:14.965Z,57.47
2023-05-13T23:22:19.125Z,56.45
2023-05-13T23:25:25.663Z,54.36
2023-05-13T23:28:29.849Z,52.76
2023-05-13T23:31:33.880Z,51.71
2023-05-13T23:34:37.940Z,51.32
2023-05-13T23:37:41.909Z,51.05
2023-05-13T23:41:00.152Z,50.08
2023-05-13T23:44:09.727Z,50.64
2023-05-13T23:47:16.337Z,50.63
2023-05-13T23:50:20.705Z,49.78
2023-05-13T23:53:24.741Z,49.23
2023-05-13T23:56:28.783Z,49.68
2023-05-13T23:59:32.839Z,49.08
